Time;durP1;ratioP1;P1;durP2;ratioP2;P2;SDS_P1;SDS_P2;PMS_P1;PMS_P2;Temp;Humidity;BMP_temperature;BMP_pressure;BME280_temperature;BME280_humidity;BME280_pressure;Samples;Min_cycle;Max_cycle;Signal;HPM_P1;HPM_P2
2021/04/19 00:02:24;;;;;;;1.92;1.60;;;7.80;64.10;;;;;;5053933;28;20029;-76
2021/04/19 00:04:50;;;;;;;2.58;1.70;;;7.70;64.20;;;;;;5053961;28;20075;-75
2021/04/19 00:07:17;;;;;;;2.53;1.95;;;7.70;64.40;;;;;;5053683;28;20081;-76
2021/04/19 00:09:42;;;;;;;2.72;1.85;;;7.60;64.50;;;;;;5053434;28;20550;-76
2021/04/19 00:12:08;;;;;;;4.53;2.33;;;7.60;64.70;;;;;;5053297;28;20120;-76
2021/04/19 00:14:34;;;;;;;4.55;2.92;;;7.50;64.80;;;;;;5053730;28;20049;-75
2021/04/19 00:16:59;;;;;;;3.40;2.70;;;7.50;65.00;;;;;;5053555;28;20530;-76
2021/04/19 00:19:25;;;;;;;3.78;2.70;;;7.40;65.30;;;;;;5053457;28;20029;-76
2021/04/19 00:21:51;;;;;;;3.67;2.55;;;7.40;65.50;;;;;;5053601;28;20021;-77
2021/04/19 00:24:16;;;;;;;3.80;2.47;;;7.30;65.60;;;;;;5053526;28;20044;-77
2021/04/19 00:26:42;;;;;;;7.55;2.78;;;7.30;65.90;;;;;;5053027;28;20021;-76
2021/04/19 00:29:07;;;;;;;4.28;2.13;;;7.20;65.90;;;;;;5053500;28;20358;-77
2021/04/19 00:31:33;;;;;;;2.33;1.75;;;7.20;66.00;;;;;;5053324;28;20111;-77
2021/04/19 00:33:59;;;;;;;3.65;1.85;;;7.20;66.10;;;;;;5053369;28;20109;-76
2021/04/19 00:36:25;;;;;;;1.70;1.52;;;7.10;66.10;;;;;;5053293;28;20029;-75
2021/04/19 00:38:51;;;;;;;3.30;2.20;;;7.10;66.20;;;;;;5053230;28;20032;-76
2021/04/19 00:41:17;;;;;;;2.85;1.80;;;7.10;66.20;;;;;;5051484;28;20162;-76
2021/04/19 00:43:42;;;;;;;2.72;1.80;;;7.10;66.20;;;;;;5053369;28;20025;-76
2021/04/19 00:46:08;;;;;;;1.45;1.33;;;7.10;66.80;;;;;;5051888;28;20021;-75
2021/04/19 00:48:36;;;;;;;2.40;1.70;;;7.10;66.10;;;;;;5053051;28;20049;-76
2021/04/19 00:51:03;;;;;;;1.85;1.30;;;7.10;66.00;;;;;;5051765;28;20037;-78
2021/04/19 00:53:30;;;;;;;2.63;1.67;;;7.10;66.10;;;;;;5052941;28;20013;-77
2021/04/19 00:55:55;;;;;;;2.00;1.50;;;7.20;66.10;;;;;;5052625;28;20033;-76
2021/04/19 00:58:27;;;;;;;2.25;1.30;;;7.10;66.00;;;;;;5053194;28;20513;-78
2021/04/19 01:00:54;;;;;;;2.50;1.30;;;7.20;66.10;;;;;;5052948;28;20013;-76
2021/04/19 01:03:21;;;;;;;2.50;1.48;;;7.20;66.10;;;;;;5052965;28;20028;-77
2021/04/19 01:05:48;;;;;;;2.22;1.50;;;7.20;66.10;;;;;;5052865;28;20017;-77
2021/04/19 01:08:13;;;;;;;2.42;2.10;;;7.10;66.20;;;;;;5052946;28;20035;-75
2021/04/19 01:10:39;;;;;;;1.85;1.63;;;7.10;66.30;;;;;;5056052;28;20045;-77
2021/04/19 01:13:06;;;;;;;2.20;1.70;;;7.10;66.40;;;;;;5052709;28;20033;-76
2021/04/19 01:15:32;;;;;;;1.88;1.60;;;7.00;66.50;;;;;;5052977;28;20409;-76
2021/04/19 01:17:58;;;;;;;2.42;1.85;;;6.90;66.60;;;;;;5052761;28;20476;-77
2021/04/19 01:20:26;;;;;;;2.55;1.60;;;6.90;66.70;;;;;;5052875;28;20060;-76
2021/04/19 01:22:52;;;;;;;2.50;1.60;;;6.80;66.80;;;;;;5056574;28;20065;-77
2021/04/19 01:25:21;;;;;;;2.45;1.73;;;6.80;66.80;;;;;;5056190;28;20420;-77
2021/04/19 01:27:47;;;;;;;1.50;1.30;;;6.80;67.00;;;;;;5056934;28;20025;-77
2021/04/19 01:30:16;;;;;;;2.30;1.33;;;6.80;67.00;;;;;;5056735;28;20043;-77
2021/04/19 01:32:43;;;;;;;2.53;1.35;;;6.80;67.00;;;;;;5056494;28;20116;-77
2021/04/19 01:35:09;;;;;;;2.17;1.65;;;6.70;67.00;;;;;;5056579;28;20523;-77
2021/04/19 01:37:35;;;;;;;1.20;1.10;;;6.70;67.10;;;;;;5056619;28;20028;-77
2021/04/19 01:40:01;;;;;;;2.35;1.73;;;6.60;67.20;;;;;;5056231;28;20117;-76
2021/04/19 01:42:26;;;;;;;1.42;1.30;;;6.60;67.30;;;;;;5056353;28;20088;-77
2021/04/19 01:44:52;;;;;;;1.48;1.17;;;6.60;67.30;;;;;;5056499;28;20096;-77
2021/04/19 01:47:17;;;;;;;1.40;1.30;;;6.60;67.30;;;;;;5056422;28;20469;-78
2021/04/19 01:49:43;;;;;;;2.15;1.50;;;6.50;67.40;;;;;;5056348;28;20517;-76
2021/04/19 01:52:09;;;;;;;5.55;2.80;;;6.50;67.40;;;;;;5056281;28;20048;-75
2021/04/19 01:54:34;;;;;;;4.07;2.78;;;6.40;67.70;;;;;;5056067;28;20183;-76
2021/04/19 01:57:00;;;;;;;3.60;2.53;;;6.30;68.00;;;;;;5056255;28;20021;-76
2021/04/19 01:59:26;;;;;;;4.53;2.60;;;6.30;68.10;;;;;;5056127;28;20036;-75
2021/04/19 02:02:10;;;;;;;3.42;2.05;;;6.30;68.30;;;;;;5056157;28;20028;-77
2021/04/19 02:05:07;;;;;;;2.58;1.75;;;6.30;68.50;;;;;;5056040;28;20025;-77
2021/04/19 02:07:44;;;;;;;1.80;1.48;;;6.20;68.50;;;;;;5055771;28;20052;-77
2021/04/19 02:10:18;;;;;;;1.52;1.30;;;6.20;68.60;;;;;;5055838;28;20125;-77
2021/04/19 02:12:57;;;;;;;1.63;1.38;;;6.20;68.60;;;;;;5055910;28;20032;-77
2021/04/19 02:15:32;;;;;;;2.50;1.98;;;6.20;68.70;;;;;;5056008;28;20048;-76
2021/04/19 02:18:42;;;;;;;1.30;1.17;;;6.10;68.60;;;;;;5054571;28;20029;-75
2021/04/19 02:21:11;;;;;;;1.75;1.20;;;6.10;68.60;;;;;;4994481;28;20502;-76
2021/04/19 02:23:57;;;;;;;1.43;1.10;;;6.00;68.50;;;;;;4993862;28;20498;-76
2021/04/19 02:26:29;;;;;;;3.17;1.65;;;6.00;68.50;;;;;;4994200;28;20274;-76
2021/04/19 02:29:16;;;;;;;2.20;1.30;;;6.00;68.60;;;;;;4994284;28;20036;-77
2021/04/19 02:32:04;;;;;;;0.88;0.88;;;6.00;68.70;;;;;;4993835;28;20138;-77
2021/04/19 02:34:32;;;;;;;1.20;1.10;;;5.90;68.70;;;;;;4994038;28;20054;-76
2021/04/19 02:36:59;;;;;;;1.70;1.10;;;5.80;68.90;;;;;;4993760;28;20018;-77
2021/04/19 02:39:26;;;;;;;1.70;1.35;;;5.80;69.00;;;;;;4994027;28;20458;-76
2021/04/19 02:41:54;;;;;;;1.60;1.20;;;5.80;69.10;;;;;;4994003;28;20372;-75
2021/04/19 02:44:21;;;;;;;1.30;1.20;;;5.80;69.10;;;;;;4994108;28;20026;-77
2021/04/19 02:46:51;;;;;;;0.93;0.93;;;5.90;69.10;;;;;;4993900;28;20089;-76
2021/04/19 02:49:19;;;;;;;;;;;5.90;69.10;;;;;;4994231;28;20411;-77
2021/04/19 02:51:45;;;;;;;0.95;0.77;;;5.90;68.70;;;;;;5021085;28;19913;-77
2021/04/19 02:54:12;;;;;;;1.35;1.25;;;5.80;68.80;;;;;;5055233;28;20529;-77
2021/04/19 02:56:39;;;;;;;1.08;0.90;;;5.90;68.80;;;;;;5055245;28;20488;-77
2021/04/19 02:59:09;;;;;;;0.82;0.82;;;5.80;68.90;;;;;;5055150;28;20045;-77
2021/04/19 03:01:38;;;;;;;1.25;1.10;;;5.80;69.10;;;;;;5055041;28;20524;-76
2021/04/19 03:04:15;;;;;;;1.23;1.00;;;5.80;69.70;;;;;;5054963;28;20017;-76
2021/04/19 03:06:43;;;;;;;1.27;1.17;;;5.80;69.20;;;;;;5054638;28;20101;-77
2021/04/19 03:09:11;;;;;;;0.90;0.90;;;5.80;69.20;;;;;;5055071;28;20021;-77
2021/04/19 03:11:52;;;;;;;2.05;1.77;;;5.80;69.20;;;;;;5070702;28;20377;-77
2021/04/19 03:14:22;;;;;;;1.23;1.02;;;5.80;69.20;;;;;;5074869;28;20468;-76
2021/04/19 03:16:54;;;;;;;0.88;0.88;;;5.80;69.20;;;;;;5073605;28;20470;-76
2021/04/19 03:19:25;;;;;;;1.52;1.02;;;5.80;69.10;;;;;;5074788;28;20017;-76
2021/04/19 03:21:52;;;;;;;1.27;0.85;;;5.80;69.10;;;;;;5074450;28;20528;-77
2021/04/19 03:24:18;;;;;;;1.67;1.10;;;5.80;69.10;;;;;;5074731;28;20029;-77
2021/04/19 03:26:45;;;;;;;1.73;1.20;;;5.70;69.20;;;;;;5073216;28;20024;-77
2021/04/19 03:29:11;;;;;;;1.10;1.00;;;5.60;69.40;;;;;;5074548;28;20126;-78
2021/04/19 03:31:44;;;;;;;0.90;0.90;;;5.60;69.60;;;;;;5073126;28;20036;-76
2021/04/19 03:34:18;;;;;;;0.90;0.90;;;5.50;69.90;;;;;;5074975;28;20485;-77
2021/04/19 03:36:48;;;;;;;0.90;0.90;;;5.50;70.10;;;;;;5075410;28;20028;-77
2021/04/19 03:39:14;;;;;;;2.47;1.67;;;5.50;70.10;;;;;;5074499;28;20025;-77
2021/04/19 03:41:44;;;;;;;1.38;1.20;;;5.50;70.10;;;;;;5074206;28;20017;-76
2021/04/19 03:44:13;;;;;;;1.13;0.98;;;5.50;70.10;;;;;;5073581;28;20058;-76
2021/04/19 03:46:41;;;;;;;1.67;1.10;;;5.50;70.10;;;;;;5074240;28;20017;-78
2021/04/19 03:49:11;;;;;;;1.02;1.00;;;5.50;70.10;;;;;;5073828;28;20047;-76
2021/04/19 03:51:40;;;;;;;1.35;1.00;;;5.60;70.20;;;;;;5074195;28;20086;-76
2021/04/19 03:54:07;;;;;;;1.02;0.90;;;5.60;70.10;;;;;;5073900;28;20020;-78
2021/04/19 03:56:35;;;;;;;1.42;1.20;;;5.60;70.00;;;;;;5074096;28;20031;-78
2021/04/19 03:59:04;;;;;;;1.73;1.17;;;5.70;70.10;;;;;;5073999;28;20020;-78
2021/04/19 04:01:32;;;;;;;1.15;1.10;;;5.70;70.10;;;;;;5073954;28;20074;-77
2021/04/19 04:03:58;;;;;;;1.30;1.17;;;5.70;70.00;;;;;;5073496;28;20031;-76
2021/04/19 04:06:26;;;;;;;1.25;1.10;;;5.80;70.00;;;;;;5073827;28;20020;-76
2021/04/19 04:08:53;;;;;;;1.70;1.60;;;5.80;70.00;;;;;;5073887;28;20063;-76
2021/04/19 04:11:19;;;;;;;1.92;1.50;;;5.80;70.00;;;;;;5073609;28;20090;-76
2021/04/19 04:13:45;;;;;;;1.20;1.10;;;5.80;70.10;;;;;;5073821;28;20024;-77
2021/04/19 04:16:11;;;;;;;1.10;1.08;;;5.80;70.20;;;;;;5073562;28;20029;-77
2021/04/19 04:18:36;;;;;;;3.05;1.55;;;5.90;70.30;;;;;;5071745;28;20058;-78
2021/04/19 04:21:02;;;;;;;1.33;1.23;;;5.90;70.30;;;;;;5073811;28;20029;-77
2021/04/19 04:23:28;;;;;;;1.98;1.20;;;5.90;70.30;;;;;;5072285;28;20016;-78
2021/04/19 04:25:54;;;;;;;2.17;1.33;;;5.90;70.20;;;;;;5073448;28;20377;-77
2021/04/19 04:28:20;;;;;;;1.52;1.30;;;5.90;70.40;;;;;;5073390;28;20024;-77
2021/04/19 04:30:46;;;;;;;1.95;1.55;;;5.90;70.40;;;;;;5073434;28;20494;-77
2021/04/19 04:33:11;;;;;;;2.88;1.52;;;5.90;70.50;;;;;;5072736;28;20119;-76
2021/04/19 04:35:38;;;;;;;1.48;1.38;;;5.80;70.50;;;;;;5073302;28;20043;-77
2021/04/19 04:38:04;;;;;;;1.40;1.13;;;5.80;70.70;;;;;;5073269;28;20032;-76
2021/04/19 04:40:31;;;;;;;3.22;2.50;;;5.90;70.80;;;;;;5073210;28;20056;-77
2021/04/19 04:43:11;;;;;;;2.78;1.70;;;5.90;70.80;;;;;;5073337;28;20465;-76
2021/04/19 04:45:37;;;;;;;1.70;1.30;;;5.80;70.90;;;;;;5072036;28;20457;-77
2021/04/19 04:48:19;;;;;;;2.53;1.63;;;5.90;70.90;;;;;;5072682;28;20048;-77
2021/04/19 04:50:54;;;;;;;1.88;1.77;;;6.00;70.70;;;;;;5073297;28;20106;-77
2021/04/19 04:53:25;;;;;;;3.00;1.90;;;6.10;70.70;;;;;;5071867;28;20518;-76
2021/04/19 04:55:52;;;;;;;2.70;1.45;;;6.20;70.80;;;;;;5073322;28;20024;-76
2021/04/19 04:58:18;;;;;;;2.55;1.70;;;6.20;70.70;;;;;;5073018;28;20031;-76
2021/04/19 05:00:44;;;;;;;2.00;1.80;;;6.20;70.70;;;;;;5072963;28;20025;-76
2021/04/19 05:03:14;;;;;;;2.38;2.00;;;6.20;71.00;;;;;;5072502;28;20071;-77
2021/04/19 05:05:41;;;;;;;2.63;1.50;;;6.10;71.10;;;;;;5073067;28;20021;-76
2021/04/19 05:08:11;;;;;;;2.97;2.03;;;6.10;71.30;;;;;;5072931;28;20024;-76
2021/04/19 05:10:37;;;;;;;;;;;5.90;71.70;;;;;;5068653;28;20033;-76
2021/04/19 05:13:10;;;;;;;2.97;2.40;;;5.80;71.70;;;;;;5052698;28;20383;-76
2021/04/19 05:15:46;;;;;;;3.97;2.80;;;5.80;72.10;;;;;;5053608;28;20162;-76
2021/04/19 05:18:13;;;;;;;2.85;2.13;;;5.70;72.20;;;;;;5072396;28;20039;-78
2021/04/19 05:20:38;;;;;;;3.17;2.20;;;5.70;72.50;;;;;;5071545;28;20028;-77
2021/04/19 05:23:04;;;;;;;3.88;2.40;;;5.70;72.50;;;;;;5063740;28;20028;-77
2021/04/19 05:25:30;;;;;;;4.45;2.42;;;5.70;72.60;;;;;;5072801;28;20021;-77
2021/04/19 05:27:58;;;;;;;3.53;2.20;;;5.60;72.60;;;;;;5072641;28;20074;-77
2021/04/19 05:30:24;;;;;;;1.90;1.58;;;5.60;72.90;;;;;;5072327;28;20493;-78
2021/04/19 05:32:50;;;;;;;2.17;1.60;;;5.60;72.80;;;;;;5072718;28;20025;-78
2021/04/19 05:35:17;;;;;;;2.92;2.13;;;5.70;72.80;;;;;;5063352;28;20136;-76
2021/04/19 05:37:45;;;;;;;3.03;2.20;;;5.70;73.50;;;;;;5065522;28;20017;-77
2021/04/19 05:40:12;;;;;;;4.68;2.22;;;5.70;72.90;;;;;;5072353;28;20028;-77
2021/04/19 05:42:37;;;;;;;3.47;2.10;;;5.70;72.90;;;;;;5072378;28;20109;-78
2021/04/19 05:45:06;;;;;;;2.13;1.60;;;5.80;73.10;;;;;;5072004;28;20104;-76
2021/04/19 05:47:32;;;;;;;1.53;1.43;;;5.80;73.10;;;;;;5072371;28;20021;-76
2021/04/19 05:49:57;;;;;;;2.95;2.03;;;5.80;73.20;;;;;;5072323;28;20358;-75
2021/04/19 05:52:24;;;;;;;1.98;1.73;;;5.90;73.30;;;;;;5072509;28;20036;-76
2021/04/19 05:54:49;;;;;;;2.80;2.00;;;5.90;73.50;;;;;;5072420;28;20512;-77
2021/04/19 05:57:38;;;;;;;2.55;1.98;;;5.90;73.60;;;;;;5072444;28;20120;-76
2021/04/19 06:00:16;;;;;;;4.90;3.17;;;6.00;73.80;;;;;;5072238;28;20480;-76
2021/04/19 06:03:05;;;;;;;3.70;2.75;;;5.90;73.90;;;;;;5071469;28;20024;-75
2021/04/19 06:05:55;;;;;;;4.68;2.60;;;5.80;74.30;;;;;;5072222;28;20029;-75
2021/04/19 06:08:27;;;;;;;4.05;2.60;;;5.80;74.60;;;;;;5075065;28;20107;-77
2021/04/19 06:11:03;;;;;;;3.00;2.10;;;5.90;74.70;;;;;;5075565;28;20040;-76
2021/04/19 06:13:30;;;;;;;4.70;2.90;;;5.90;74.80;;;;;;5075763;28;20487;-76
2021/04/19 06:15:59;;;;;;;3.65;2.70;;;5.90;74.80;;;;;;5075157;28;20035;-77
2021/04/19 06:18:26;;;;;;;3.10;2.03;;;6.00;74.90;;;;;;5075547;28;20045;-75
2021/04/19 06:20:56;;;;;;;2.40;1.98;;;6.00;74.90;;;;;;5075532;28;20033;-75
2021/04/19 06:23:23;;;;;;;2.67;1.80;;;6.10;75.00;;;;;;5075534;28;20016;-77
2021/04/19 06:25:49;;;;;;;2.85;2.00;;;6.30;75.10;;;;;;5075492;28;20157;-77
2021/04/19 06:28:15;;;;;;;2.80;2.33;;;6.40;75.10;;;;;;5075293;28;20067;-76
2021/04/19 06:30:43;;;;;;;3.20;2.63;;;6.50;75.00;;;;;;5074815;28;20036;-76
2021/04/19 06:33:16;;;;;;;3.08;1.85;;;6.60;75.10;;;;;;5072638;28;20028;-76
2021/04/19 06:35:45;;;;;;;3.25;2.30;;;6.60;75.30;;;;;;5065180;28;20049;-77
2021/04/19 06:38:11;;;;;;;2.60;1.98;;;6.50;75.50;;;;;;5055347;28;20017;-77
2021/04/19 06:40:38;;;;;;;2.78;2.20;;;6.50;75.70;;;;;;5055160;28;20538;-77
2021/04/19 06:43:04;;;;;;;3.47;2.28;;;6.50;76.00;;;;;;5055128;28;20021;-78
2021/04/19 06:45:32;;;;;;;3.08;2.10;;;6.40;76.10;;;;;;5055218;28;20090;-77
2021/04/19 06:48:00;;;;;;;2.88;1.95;;;6.50;76.30;;;;;;5054882;28;20027;-77
2021/04/19 06:50:25;;;;;;;3.00;1.98;;;6.50;76.40;;;;;;5055086;28;20385;-77
2021/04/19 06:52:51;;;;;;;2.15;1.58;;;6.50;76.30;;;;;;5055027;28;20029;-78
2021/04/19 06:55:18;;;;;;;2.22;1.52;;;6.60;76.30;;;;;;5055015;28;20028;-76
2021/04/19 06:57:51;;;;;;;2.53;2.00;;;6.60;76.40;;;;;;5054326;28;20031;-78
2021/04/19 07:00:17;;;;;;;2.33;1.77;;;6.70;76.50;;;;;;5055007;28;20021;-77
2021/04/19 07:02:49;;;;;;;2.88;2.10;;;6.70;76.60;;;;;;5054652;28;20017;-77
2021/04/19 07:05:18;;;;;;;1.77;1.60;;;6.70;76.70;;;;;;5054803;28;20056;-78
2021/04/19 07:07:57;;;;;;;2.58;1.85;;;6.80;76.60;;;;;;5059582;28;20373;-78
2021/04/19 07:10:23;;;;;;;3.50;1.92;;;7.00;76.50;;;;;;5074817;28;20041;-79
2021/04/19 07:12:48;;;;;;;2.53;1.85;;;7.10;76.40;;;;;;5060580;28;20078;-80
2021/04/19 07:15:18;;;;;;;2.05;1.60;;;7.30;76.40;;;;;;5054302;28;20478;-79
2021/04/19 07:17:50;;;;;;;2.22;1.73;;;7.40;76.30;;;;;;5054184;28;20091;-81
2021/04/19 07:20:17;;;;;;;1.70;1.60;;;7.50;76.30;;;;;;5053689;28;20079;-79
2021/04/19 07:22:44;;;;;;;2.40;1.75;;;7.60;76.40;;;;;;5054549;28;20025;-79
2021/04/19 07:25:10;;;;;;;3.65;2.30;;;7.80;76.30;;;;;;5053124;28;20025;-78
2021/04/19 07:27:40;;;;;;;3.67;2.38;;;8.00;76.20;;;;;;5053899;28;20029;-74
2021/04/19 07:30:09;;;;;;;2.13;1.88;;;8.20;76.10;;;;;;5054003;28;20064;-74
2021/04/19 07:32:37;;;;;;;1.67;1.48;;;8.30;76.10;;;;;;5054305;28;20025;-74
2021/04/19 07:35:06;;;;;;;2.10;1.67;;;8.60;76.60;;;;;;5052754;28;20044;-75
2021/04/19 07:37:33;;;;;;;1.67;1.58;;;8.80;75.80;;;;;;5054152;28;20025;-74
2021/04/19 07:40:00;;;;;;;2.67;1.58;;;8.90;75.80;;;;;;5054300;28;20055;-77
2021/04/19 07:42:26;;;;;;;3.33;2.30;;;9.10;75.80;;;;;;5053752;28;20025;-77
2021/04/19 07:44:53;;;;;;;2.45;1.98;;;9.30;75.70;;;;;;5054369;28;20385;-78
2021/04/19 07:47:36;;;;;;;2.85;2.00;;;9.50;75.50;;;;;;5052863;28;20025;-78
2021/04/19 07:50:12;;;;;;;3.58;2.40;;;9.80;75.40;;;;;;5053980;28;20107;-78
2021/04/19 07:53:00;;;;;;;3.13;2.33;;;9.90;75.60;;;;;;5054064;28;20056;-79
2021/04/19 07:55:33;;;;;;;2.20;1.80;;;10.00;75.50;;;;;;5053429;28;20021;-80
2021/04/19 07:57:59;;;;;;;2.78;1.80;;;10.20;75.50;;;;;;5053819;28;20108;-78
2021/04/19 08:00:32;;;;;;;2.85;2.38;;;10.30;75.50;;;;;;5053812;28;20018;-78
2021/04/19 08:03:12;;;;;;;2.20;2.00;;;10.50;75.70;;;;;;5055895;28;20464;-79
2021/04/19 08:05:38;;;;;;;;;;;10.50;75.80;;;;;;5073957;28;20028;-78
2021/04/19 08:08:06;;;;;;;2.88;2.00;;;10.40;75.80;;;;;;5074071;28;19957;-77
2021/04/19 08:10:33;;;;;;;2.45;2.03;;;10.50;76.20;;;;;;5072963;28;20028;-78
2021/04/19 08:13:10;;;;;;;3.20;2.50;;;10.40;76.40;;;;;;5073350;28;20358;-79
2021/04/19 08:15:38;;;;;;;3.08;2.40;;;10.40;76.80;;;;;;5074140;28;20472;-79
2021/04/19 08:18:19;;;;;;;2.35;1.90;;;10.40;77.10;;;;;;5071140;28;20491;-78
2021/04/19 08:20:53;;;;;;;2.53;2.15;;;10.60;77.00;;;;;;5073362;28;20043;-78
2021/04/19 08:23:20;;;;;;;3.58;2.65;;;10.80;76.60;;;;;;5073236;28;20024;-78
2021/04/19 08:25:51;;;;;;;3.20;2.42;;;10.80;76.40;;;;;;5072621;28;20020;-79
2021/04/19 08:28:19;;;;;;;2.55;2.30;;;10.90;76.30;;;;;;5072989;28;20017;-78
2021/04/19 08:30:48;;;;;;;4.13;2.75;;;11.20;76.00;;;;;;5072842;28;20029;-78
2021/04/19 08:33:15;;;;;;;2.92;2.22;;;11.40;75.80;;;;;;5073028;28;20020;-78
2021/04/19 08:35:42;;;;;;;4.82;2.80;;;11.60;75.50;;;;;;5072318;28;20028;-77
2021/04/19 08:38:09;;;;;;;3.17;2.03;;;11.70;75.40;;;;;;5073050;28;20028;-79
2021/04/19 08:40:37;;;;;;;2.90;1.95;;;11.80;75.50;;;;;;5072616;28;20443;-78
2021/04/19 08:43:06;;;;;;;4.63;3.15;;;11.80;75.50;;;;;;5071930;28;20009;-76
2021/04/19 08:45:32;;;;;;;3.10;2.50;;;11.70;75.70;;;;;;5073157;28;20020;-77
2021/04/19 08:47:58;;;;;;;3.22;2.33;;;11.60;76.10;;;;;;5072942;28;20051;-76
2021/04/19 08:50:26;;;;;;;3.00;2.00;;;11.50;76.40;;;;;;5071930;28;20123;-77
2021/04/19 08:52:54;;;;;;;3.35;2.20;;;11.30;76.80;;;;;;5072942;28;20407;-78
2021/04/19 08:55:20;;;;;;;2.13;1.85;;;11.50;76.70;;;;;;5072550;28;20038;-78
2021/04/19 08:57:47;;;;;;;2.38;2.00;;;11.50;76.70;;;;;;5071961;28;20032;-78
2021/04/19 09:00:17;;;;;;;2.05;1.83;;;11.50;76.70;;;;;;5051197;28;20021;-78
2021/04/19 09:02:43;;;;;;;2.20;1.80;;;11.50;76.70;;;;;;5050017;28;20025;-77
2021/04/19 09:05:13;;;;;;;1.92;1.55;;;11.70;76.60;;;;;;5050151;28;20503;-78
2021/04/19 09:07:45;;;;;;;2.72;1.98;;;11.80;76.30;;;;;;5048762;28;20032;-78
2021/04/19 09:10:17;;;;;;;2.00;1.80;;;12.00;76.00;;;;;;5049367;28;20021;-76
2021/04/19 09:12:43;;;;;;;2.33;1.85;;;12.10;75.80;;;;;;5050033;28;20029;-77
2021/04/19 09:15:18;;;;;;;2.17;1.88;;;12.10;75.80;;;;;;5049903;28;20075;-77
2021/04/19 09:17:59;;;;;;;1.77;1.67;;;12.20;75.80;;;;;;5049919;28;20060;-78
2021/04/19 09:20:33;;;;;;;2.63;2.03;;;12.30;75.60;;;;;;5050197;28;20037;-76
2021/04/19 09:23:28;;;;;;;2.30;1.70;;;12.40;75.40;;;;;;5063363;28;20115;-78
2021/04/19 09:25:56;;;;;;;2.35;1.95;;;12.50;75.60;;;;;;5070583;28;20025;-79
2021/04/19 09:28:39;;;;;;;2.67;2.10;;;12.80;75.20;;;;;;5071063;28;20486;-78
2021/04/19 09:31:05;;;;;;;2.13;1.80;;;13.10;74.80;;;;;;5072496;28;20384;-79
2021/04/19 09:33:31;;;;;;;3.33;1.92;;;13.30;74.50;;;;;;5072007;28;20067;-78
2021/04/19 09:35:57;;;;;;;2.65;1.95;;;13.50;74.30;;;;;;5072617;28;20071;-80
2021/04/19 09:38:34;;;;;;;1.90;1.80;;;13.80;73.90;;;;;;5072165;28;20058;-76
2021/04/19 09:41:04;;;;;;;2.00;1.80;;;14.00;73.80;;;;;;5070620;28;20384;-78
2021/04/19 09:43:34;;;;;;;2.17;1.83;;;14.20;73.90;;;;;;5075573;28;20055;-78
2021/04/19 09:46:03;;;;;;;3.75;2.55;;;14.20;73.90;;;;;;5076292;28;20021;-77
2021/04/19 09:48:29;;;;;;;2.40;1.80;;;14.30;73.90;;;;;;5075094;28;20214;-78
2021/04/19 09:51:00;;;;;;;1.67;1.58;;;14.30;74.00;;;;;;5076715;28;20116;-79
2021/04/19 09:53:27;;;;;;;2.13;1.52;;;14.40;74.30;;;;;;5075918;28;20160;-77
2021/04/19 09:55:52;;;;;;;2.03;1.52;;;14.40;74.20;;;;;;5076146;28;20097;-77
2021/04/19 09:58:19;;;;;;;2.15;1.67;;;14.40;74.30;;;;;;5076195;28;20469;-78
2021/04/19 10:00:46;;;;;;;1.90;1.67;;;14.50;74.40;;;;;;5072613;28;20457;-78
2021/04/19 10:03:11;;;;;;;1.73;1.45;;;14.50;74.20;;;;;;5075987;28;20016;-77
2021/04/19 10:05:40;;;;;;;2.85;1.98;;;14.60;74.10;;;;;;5074011;28;20100;-78
2021/04/19 10:08:08;;;;;;;2.03;1.37;;;14.60;74.10;;;;;;5075529;28;20055;-79
2021/04/19 10:10:34;;;;;;;2.25;1.52;;;14.70;74.00;;;;;;5075687;28;20374;-77
2021/04/19 10:13:00;;;;;;;1.73;1.63;;;14.80;73.90;;;;;;5075574;28;20077;-79
2021/04/19 10:15:29;;;;;;;2.20;1.80;;;14.70;73.90;;;;;;5075206;28;20111;-80
2021/04/19 10:17:55;;;;;;;2.03;1.48;;;14.60;74.00;;;;;;5072473;28;20712;-79
2021/04/19 10:20:26;;;;;;;2.08;1.73;;;14.50;74.20;;;;;;5069681;28;20025;-80
2021/04/19 10:23:08;;;;;;;2.17;1.85;;;14.50;74.40;;;;;;5072985;28;20028;-78
2021/04/19 10:25:44;;;;;;;2.33;1.80;;;14.50;74.30;;;;;;5074761;28;20009;-79
2021/04/19 10:28:09;;;;;;;2.28;2.03;;;14.60;74.20;;;;;;5075693;28;20027;-78
2021/04/19 10:30:35;;;;;;;2.05;1.60;;;14.70;73.80;;;;;;5075402;28;20103;-79
2021/04/19 10:33:01;;;;;;;2.05;1.85;;;14.60;73.90;;;;;;5075651;28;20025;-79
2021/04/19 10:35:34;;;;;;;2.33;1.60;;;14.70;73.90;;;;;;5074631;28;20053;-78
2021/04/19 10:38:00;;;;;;;2.00;1.80;;;14.80;73.70;;;;;;5075667;28;20020;-78
2021/04/19 10:40:26;;;;;;;2.03;1.50;;;14.80;73.90;;;;;;5076297;28;20024;-79
2021/04/19 10:42:53;;;;;;;2.10;1.90;;;15.00;73.80;;;;;;5076112;28;20035;-79
2021/04/19 10:45:19;;;;;;;2.15;1.90;;;15.30;73.30;;;;;;5077156;28;20473;-78
2021/04/19 10:47:45;;;;;;;2.67;1.90;;;15.40;72.90;;;;;;5075419;28;20108;-80
2021/04/19 10:50:11;;;;;;;3.22;1.90;;;15.50;72.90;;;;;;5074723;28;20064;-78
2021/04/19 10:52:37;;;;;;;3.03;2.15;;;15.80;72.60;;;;;;5075083;28;20033;-79
2021/04/19 10:55:08;;;;;;;2.28;1.90;;;16.10;72.40;;;;;;5075310;28;20016;-79
2021/04/19 10:57:35;;;;;;;2.88;1.98;;;16.50;71.80;;;;;;5074165;28;20040;-78
2021/04/19 11:00:06;;;;;;;3.05;2.30;;;16.80;71.10;;;;;;5058255;28;20056;-77
2021/04/19 11:02:32;;;;;;;2.38;2.05;;;16.80;71.40;;;;;;5075104;28;20095;-77
2021/04/19 11:04:58;;;;;;;3.00;2.13;;;16.80;71.50;;;;;;5066112;28;20108;-75
2021/04/19 11:07:31;;;;;;;2.42;1.83;;;16.80;71.70;;;;;;5062776;28;20111;-77
2021/04/19 11:10:22;;;;;;;1.80;1.60;;;16.80;71.80;;;;;;5053589;28;20025;-77
2021/04/19 11:13:02;;;;;;;2.22;1.70;;;16.60;72.00;;;;;;5070346;28;20020;-77
2021/04/19 11:15:39;;;;;;;2.20;1.60;;;16.40;72.30;;;;;;5072980;28;20057;-78
2021/04/19 11:18:18;;;;;;;2.55;1.88;;;16.40;72.50;;;;;;5074630;28;20024;-78
2021/04/19 11:20:44;;;;;;;1.58;1.48;;;16.50;72.30;;;;;;5073041;28;20040;-77
2021/04/19 11:23:21;;;;;;;2.28;1.85;;;16.50;72.00;;;;;;5072472;28;20040;-78
2021/04/19 11:25:47;;;;;;;1.58;1.48;;;16.50;71.70;;;;;;5074605;28;20028;-77
2021/04/19 11:28:21;;;;;;;2.38;1.75;;;16.40;72.00;;;;;;5073862;28;20052;-78
2021/04/19 11:30:49;;;;;;;1.70;1.60;;;16.50;72.60;;;;;;5074464;28;20039;-80
2021/04/19 11:33:23;;;;;;;1.92;1.70;;;16.50;72.00;;;;;;5072422;28;20052;-81
2021/04/19 11:35:56;;;;;;;1.70;1.60;;;16.50;71.90;;;;;;5074506;28;20028;-79
2021/04/19 11:38:25;;;;;;;1.45;1.17;;;16.70;71.70;;;;;;5074627;28;20476;-79
2021/04/19 11:40:52;;;;;;;1.60;1.50;;;16.80;71.20;;;;;;5073087;28;20048;-78
2021/04/19 11:43:26;;;;;;;2.00;1.60;;;16.90;70.90;;;;;;5074014;28;20024;-77
2021/04/19 11:46:01;;;;;;;1.65;1.50;;;16.70;71.20;;;;;;5074282;28;20028;-79
2021/04/19 11:48:28;;;;;;;1.65;1.45;;;16.50;71.60;;;;;;5073835;28;20032;-77
2021/04/19 11:50:54;;;;;;;3.05;1.65;;;16.20;72.00;;;;;;5072707;28;20392;-78
2021/04/19 11:53:24;;;;;;;2.47;2.05;;;15.90;72.30;;;;;;5072746;28;20033;-79
2021/04/19 11:55:51;;;;;;;1.52;1.38;;;15.80;72.70;;;;;;5072766;28;20436;-79
2021/04/19 11:58:17;;;;;;;2.00;1.67;;;15.50;72.90;;;;;;5073885;28;20032;-79
2021/04/19 12:00:43;;;;;;;1.85;1.58;;;15.40;73.00;;;;;;5074074;28;20021;-78
2021/04/19 12:03:08;;;;;;;1.83;1.52;;;15.20;73.10;;;;;;5073558;28;20032;-78
2021/04/19 12:05:34;;;;;;;1.75;1.65;;;15.20;73.70;;;;;;5071778;28;20456;-79
2021/04/19 12:07:59;;;;;;;2.40;1.52;;;15.20;72.90;;;;;;5073754;28;20051;-79
2021/04/19 12:10:25;;;;;;;1.15;1.08;;;15.30;72.60;;;;;;5072483;28;20087;-78
2021/04/19 12:12:50;;;;;;;2.17;1.80;;;15.30;72.40;;;;;;5072905;28;20362;-78
2021/04/19 12:15:16;;;;;;;1.83;1.40;;;15.30;72.90;;;;;;5072408;28;20024;-78
2021/04/19 12:17:41;;;;;;;1.52;1.40;;;15.40;72.10;;;;;;5072861;28;20020;-77
2021/04/19 12:20:07;;;;;;;1.67;1.50;;;15.40;71.90;;;;;;5072353;28;20059;-77
2021/04/19 12:22:33;;;;;;;1.65;1.55;;;15.30;71.90;;;;;;5073638;28;20030;-78
2021/04/19 12:24:59;;;;;;;1.27;1.17;;;15.30;72.00;;;;;;5073514;28;20021;-78
2021/04/19 12:27:24;;;;;;;1.77;1.55;;;15.40;71.90;;;;;;5072115;28;20013;-77
2021/04/19 12:29:50;;;;;;;2.03;1.38;;;15.50;71.70;;;;;;5073573;28;20028;-78
2021/04/19 12:32:15;;;;;;;1.30;1.20;;;15.50;71.70;;;;;;5072930;28;20040;-80
2021/04/19 12:34:41;;;;;;;1.60;1.48;;;15.40;71.70;;;;;;5073340;28;20601;-79
2021/04/19 12:37:07;;;;;;;1.88;1.63;;;15.50;71.70;;;;;;5072068;28;20033;-79
2021/04/19 12:39:32;;;;;;;1.52;1.42;;;15.50;71.50;;;;;;5073406;28;20108;-80
2021/04/19 12:41:58;;;;;;;1.90;1.50;;;15.50;71.50;;;;;;5073230;28;20484;-79
2021/04/19 12:44:24;;;;;;;1.42;1.30;;;15.50;71.50;;;;;;5093319;22;20045;-69
2021/04/19 12:46:51;;;;;;;1.60;1.45;;;15.60;71.40;;;;;;5072969;28;20016;-69
2021/04/19 12:49:19;;;;;;;1.13;1.02;;;15.60;71.20;;;;;;5073221;28;20021;-70
2021/04/19 12:51:45;;;;;;;1.33;1.23;;;15.80;71.00;;;;;;5071889;28;20025;-70
2021/04/19 12:54:11;;;;;;;1.58;1.40;;;16.00;70.80;;;;;;5073073;28;20023;-70
2021/04/19 12:56:36;;;;;;;1.70;1.60;;;16.20;70.50;;;;;;5073248;28;20020;-70
2021/04/19 12:59:02;;;;;;;1.98;1.65;;;16.40;70.20;;;;;;5073118;28;20028;-70
2021/04/19 13:01:28;;;;;;;2.08;1.70;;;16.70;69.70;;;;;;5069240;28;20016;-69
2021/04/19 13:03:53;;;;;;;1.63;1.45;;;16.80;69.30;;;;;;5073186;28;20047;-69